Time;durP1;ratioP1;P1;durP2;ratioP2;P2;SDS_P1;SDS_P2;PMS_P1;PMS_P2;Temp;Humidity;BMP_temperature;BMP_pressure;BME280_temperature;BME280_humidity;BME280_pressure;Samples;Min_cycle;Max_cycle;Signal;HPM_P1;HPM_P2
2022/04/26 03:36:10;;;;;;;;;;;;;;;18.00;nan;94845.41;2065495;28;1022;-56
2022/04/26 03:37:12;;;;;;;;;;;;;;;17.91;nan;94851.94;2065525;28;927;-57
2022/04/26 03:38:16;;;;;;;;;;;;;;;17.92;nan;94856.22;2065342;28;1977;-57
2022/04/26 03:39:18;;;;;;;;;;;;;;;17.77;nan;94850.22;2049509;28;1611;-58
2022/04/26 03:40:19;;;;;;;;;;;;;;;17.78;nan;94851.88;2058153;28;1482;-60
2022/04/26 03:41:21;;;;;;;;;;;;;;;17.83;nan;94847.59;2065055;28;1020;-54
2022/04/26 03:42:22;;;;;;;;;;;;;;;17.76;nan;94852.06;2060901;28;1614;-56
2022/04/26 03:43:24;;;;;;;;;;;;;;;17.71;nan;94854.47;2059673;28;1536;-57
2022/04/26 03:44:26;;;;;;;;;;;;;;;17.75;nan;94861.03;2068228;28;1093;-57
2022/04/26 03:45:28;;;;;;;;;;;;;;;17.60;nan;94863.81;2068090;28;1031;-56
2022/04/26 03:46:29;;;;;;;;;;;;;;;17.54;nan;94853.16;2067811;28;1002;-58
2022/04/26 03:47:31;;;;;;;;;;;;;;;17.44;nan;94853.50;2062230;28;1648;-58
2022/04/26 03:48:32;;;;;;;;;;;;;;;17.54;nan;94859.28;2059828;28;1644;-60
2022/04/26 03:49:35;;;;;;;;;;;;;;;17.51;nan;94858.88;2059586;28;1598;-57
2022/04/26 03:50:37;;;;;;;;;;;;;;;17.41;nan;94859.19;2053998;28;1433;-57
2022/04/26 03:51:38;;;;;;;;;;;;;;;17.42;nan;94861.69;2067645;28;1427;-59
2022/04/26 03:52:40;;;;;;;;;;;;;;;17.38;nan;94864.91;2068005;28;1161;-57
2022/04/26 03:53:42;;;;;;;;;;;;;;;17.40;nan;94862.88;2067384;28;1621;-59
2022/04/26 03:54:43;;;;;;;;;;;;;;;17.43;nan;94852.69;2060042;28;987;-60
2022/04/26 03:55:45;;;;;;;;;;;;;;;17.70;nan;94862.63;2060137;28;998;-61
2022/04/26 03:56:47;;;;;;;;;;;;;;;18.01;nan;94854.19;2059806;28;1662;-61
2022/04/26 03:57:48;;;;;;;;;;;;;;;18.14;nan;94856.09;2058933;28;1499;-59
2022/04/26 03:58:52;;;;;;;;;;;;;;;17.96;nan;94860.13;2065102;28;1914;-65
2022/04/26 03:59:54;;;;;;;;;;;;;;;17.56;nan;94867.06;2057789;28;1862;-61
2022/04/26 04:00:56;;;;;;;;;;;;;;;17.16;nan;94857.03;2058983;28;1511;-64
2022/04/26 04:01:58;;;;;;;;;;;;;;;17.13;nan;94867.19;2064839;28;1395;-59
2022/04/26 04:03:00;;;;;;;;;;;;;;;17.06;nan;94855.72;2074905;28;1205;-60
2022/04/26 04:04:02;;;;;;;;;;;;;;;17.07;nan;94858.19;2065679;28;1651;-60
2022/04/26 04:05:04;;;;;;;;;;;;;;;17.12;nan;94861.06;2067067;28;1125;-59
2022/04/26 04:06:06;;;;;;;;;;;;;;;16.94;nan;94860.72;2075369;28;1016;-60
2022/04/26 04:07:07;;;;;;;;;;;;;;;16.84;nan;94873.50;2074485;28;1650;-60
2022/04/26 04:08:09;;;;;;;;;;;;;;;16.66;nan;94865.97;2058182;28;1787;-59
2022/04/26 04:09:11;;;;;;;;;;;;;;;16.84;nan;94873.50;2061127;28;1603;-59
2022/04/26 04:10:12;;;;;;;;;;;;;;;16.87;nan;94868.66;2065551;28;1654;-61
2022/04/26 04:11:14;;;;;;;;;;;;;;;16.80;nan;94875.72;2072565;28;1785;-60
2022/04/26 04:12:16;;;;;;;;;;;;;;;16.70;nan;94868.06;2074034;28;1602;-60
2022/04/26 04:13:18;;;;;;;;;;;;;;;16.56;nan;94871.63;2050897;28;1506;-60
2022/04/26 04:14:19;;;;;;;;;;;;;;;16.62;nan;94875.34;2059430;28;1750;-63
2022/04/26 04:15:21;;;;;;;;;;;;;;;16.48;nan;94872.56;2057742;28;1430;-60
2022/04/26 04:16:23;;;;;;;;;;;;;;;16.30;nan;94877.44;2066545;28;1239;-60
2022/04/26 04:17:24;;;;;;;;;;;;;;;16.23;nan;94877.38;2059531;28;1376;-62
2022/04/26 04:19:47;;;;;;;;;;;;;;;16.20;nan;94880.41;2060622;28;1299;-61
2022/04/26 04:20:49;;;;;;;;;;;;;;;16.25;nan;94882.50;2060567;28;1630;-60
2022/04/26 04:21:51;;;;;;;;;;;;;;;16.83;nan;94890.44;2050294;29;1010;-60
2022/04/26 04:22:55;;;;;;;;;;;;;;;17.39;nan;94882.50;2051625;28;1031;-59
2022/04/26 04:23:57;;;;;;;;;;;;;;;17.66;nan;94891.44;2047357;28;1185;-63
2022/04/26 04:24:59;;;;;;;;;;;;;;;17.78;nan;94894.38;2046142;28;1106;-61
2022/04/26 04:26:00;;;;;;;;;;;;;;;17.82;nan;94891.16;2050841;28;1023;-60
2022/04/26 04:27:02;;;;;;;;;;;;;;;17.88;nan;94892.19;2051602;29;1070;-61
2022/04/26 04:28:04;;;;;;;;;;;;;;;17.70;nan;94899.81;2051418;28;1156;-60
2022/04/26 04:29:05;;;;;;;;;;;;;;;17.57;nan;94892.63;2051345;29;961;-59
2022/04/26 04:30:07;;;;;;;;;;;;;;;17.52;nan;94895.84;2051664;28;1038;-59
2022/04/26 04:31:10;;;;;;;;;;;;;;;17.48;nan;94897.25;2054161;28;1027;-61
2022/04/26 04:32:11;;;;;;;;;;;;;;;17.44;nan;94898.66;2059421;28;1437;-60
2022/04/26 04:33:13;;;;;;;;;;;;;;;17.47;nan;94903.59;2058848;28;1601;-61
2022/04/26 04:34:15;;;;;;;;;;;;;;;17.40;nan;94900.88;2058761;28;1063;-60
2022/04/26 04:35:16;;;;;;;;;;;;;;;17.39;nan;94899.25;2056286;28;1177;-60
2022/04/26 04:36:18;;;;;;;;;;;;;;;17.42;nan;94908.66;2051674;28;1332;-59
2022/04/26 04:37:19;;;;;;;;;;;;;;;17.35;nan;94897.16;2050084;28;1299;-62
2022/04/26 04:38:21;;;;;;;;;;;;;;;17.37;nan;94905.78;2058007;28;1038;-61
2022/04/26 04:39:23;;;;;;;;;;;;;;;17.41;nan;94904.34;2058296;28;1910;-60
2022/04/26 04:40:25;;;;;;;;;;;;;;;17.37;nan;94903.13;2050029;28;1019;-64
2022/04/26 04:41:27;;;;;;;;;;;;;;;17.38;nan;94894.94;2055801;28;1295;-61
2022/04/26 04:42:29;;;;;;;;;;;;;;;17.29;nan;94906.72;2057615;28;1220;-59
2022/04/26 04:43:30;;;;;;;;;;;;;;;17.29;nan;94908.56;2058180;28;1014;-63
2022/04/26 04:44:32;;;;;;;;;;;;;;;17.22;nan;94913.03;2058357;28;1073;-60
2022/04/26 04:45:34;;;;;;;;;;;;;;;17.25;nan;94904.66;2058841;28;1038;-61
2022/04/26 04:46:36;;;;;;;;;;;;;;;17.27;nan;94899.97;2056731;28;1030;-62
2022/04/26 04:47:37;;;;;;;;;;;;;;;17.28;nan;94902.44;2052475;28;1388;-62
2022/04/26 04:48:39;;;;;;;;;;;;;;;17.34;nan;94906.16;2058390;28;1266;-60
2022/04/26 04:49:41;;;;;;;;;;;;;;;17.32;nan;94913.50;2059582;28;909;-59
2022/04/26 04:50:42;;;;;;;;;;;;;;;17.26;nan;94907.13;2065612;28;1360;-62
2022/04/26 04:51:44;;;;;;;;;;;;;;;17.34;nan;94914.13;2064846;28;1044;-60
2022/04/26 04:52:46;;;;;;;;;;;;;;;17.32;nan;94908.19;2059522;28;1117;-59
2022/04/26 04:53:47;;;;;;;;;;;;;;;17.35;nan;94913.09;2059627;28;1030;-61
2022/04/26 04:54:49;;;;;;;;;;;;;;;17.38;nan;94913.53;2057288;28;1221;-59
2022/04/26 04:55:50;;;;;;;;;;;;;;;17.37;nan;94916.41;2057843;28;999;-60
2022/04/26 04:56:52;;;;;;;;;;;;;;;17.39;nan;94919.69;2058398;28;1110;-61
2022/04/26 04:57:55;;;;;;;;;;;;;;;17.37;nan;94921.69;2057070;28;1018;-62
2022/04/26 04:58:57;;;;;;;;;;;;;;;17.41;nan;94917.63;2050429;28;1302;-61
2022/04/26 05:00:00;;;;;;;;;;;;;;;17.40;nan;94921.31;2058004;28;1215;-59
2022/04/26 05:01:01;;;;;;;;;;;;;;;17.40;nan;94919.47;2054969;28;1193;-60
2022/04/26 05:02:03;;;;;;;;;;;;;;;17.42;nan;94914.78;2058153;28;1086;-60
2022/04/26 05:03:05;;;;;;;;;;;;;;;17.38;nan;94918.03;2057808;28;1086;-59
2022/04/26 05:04:06;;;;;;;;;;;;;;;17.39;nan;94919.69;2057447;28;1093;-61
2022/04/26 05:05:08;;;;;;;;;;;;;;;17.37;nan;94917.22;2057325;28;1081;-60
2022/04/26 05:06:11;;;;;;;;;;;;;;;17.43;nan;94921.75;2057034;28;1204;-59
2022/04/26 05:07:17;;;;;;;;;;;;;;;17.41;nan;94917.63;2050578;28;1086;-60
2022/04/26 05:08:18;;;;;;;;;;;;;;;17.40;nan;94921.31;2050114;29;1097;-59
2022/04/26 05:09:20;;;;;;;;;;;;;;;17.42;nan;94920.09;2047942;29;1117;-59
2022/04/26 05:10:22;;;;;;;;;;;;;;;17.42;nan;94924.59;2045392;28;1363;-60
2022/04/26 05:11:23;;;;;;;;;;;;;;;17.45;nan;94926.06;2054716;28;1241;-60
2022/04/26 05:12:28;;;;;;;;;;;;;;;17.42;nan;94924.59;2065317;28;1272;-60
2022/04/26 05:13:30;;;;;;;;;;;;;;;17.46;nan;94920.53;2064860;28;1011;-58
2022/04/26 05:14:32;;;;;;;;;;;;;;;17.48;nan;94923.81;2057889;28;1319;-60
2022/04/26 05:15:34;;;;;;;;;;;;;;;17.46;nan;94917.88;2058050;28;1089;-58
2022/04/26 05:16:35;;;;;;;;;;;;;;;17.51;nan;94920.78;2058212;28;1013;-59
2022/04/26 05:17:37;;;;;;;;;;;;;;;17.48;nan;94930.97;2057805;28;1169;-61
2022/04/26 05:18:39;;;;;;;;;;;;;;;17.48;nan;94925.66;2058427;28;913;-61
2022/04/26 05:19:40;;;;;;;;;;;;;;;17.48;nan;94920.34;2056901;28;1902;-60
2022/04/26 05:20:43;;;;;;;;;;;;;;;17.43;nan;94918.28;2053371;28;1422;-64
2022/04/26 05:21:45;;;;;;;;;;;;;;;17.43;nan;94924.41;2058273;28;1259;-59
2022/04/26 05:25:27;;;;;;;;;;;;;;;17.41;nan;94926.44;2057550;28;1084;-60
2022/04/26 05:26:29;;;;;;;;;;;;;;;17.49;nan;94930.75;2058302;28;1169;-62
2022/04/26 05:27:34;;;;;;;;;;;;;;;17.48;nan;94923.00;2058362;28;1038;-62
2022/04/26 05:28:35;;;;;;;;;;;;;;;17.52;nan;94926.91;2057799;28;1164;-59
2022/04/26 05:29:37;;;;;;;;;;;;;;;17.55;nan;94924.69;2058212;28;1120;-61
2022/04/26 05:30:38;;;;;;;;;;;;;;;17.61;nan;94921.25;2057425;28;957;-65
2022/04/26 05:31:40;;;;;;;;;;;;;;;17.67;nan;94927.63;2055422;28;1276;-61
2022/04/26 05:32:42;;;;;;;;;;;;;;;17.65;nan;94922.50;2051319;28;1041;-65
2022/04/26 05:33:43;;;;;;;;;;;;;;;17.70;nan;94921.09;2055729;28;1077;-59
2022/04/26 05:34:45;;;;;;;;;;;;;;;17.77;nan;94922.00;2058000;28;1058;-61
2022/04/26 05:35:49;;;;;;;;;;;;;;;17.82;nan;94933.66;2057819;28;1116;-59
2022/04/26 05:36:51;;;;;;;;;;;;;;;17.92;nan;94927.97;2058109;28;1034;-62
2022/04/26 05:37:53;;;;;;;;;;;;;;;17.94;nan;94923.31;2057930;28;1100;-62
2022/04/26 05:38:54;;;;;;;;;;;;;;;17.97;nan;94930.06;2058221;28;1081;-59
2022/04/26 05:39:56;;;;;;;;;;;;;;;18.01;nan;94929.47;2057383;28;1971;-60
2022/04/26 05:40:58;;;;;;;;;;;;;;;18.07;nan;94928.69;2054842;28;1117;-58
2022/04/26 05:41:59;;;;;;;;;;;;;;;18.09;nan;94925.81;2058152;28;970;-60
2022/04/26 05:43:01;;;;;;;;;;;;;;;18.10;nan;94927.47;2056975;28;1018;-61
2022/04/26 05:44:03;;;;;;;;;;;;;;;18.15;nan;94926.84;2051081;28;1178;-60
2022/04/26 05:45:05;;;;;;;;;;;;;;;18.21;nan;94934.88;2055576;28;1588;-59
2022/04/26 05:46:13;;;;;;;;;;;;;;;18.21;nan;94923.41;2057708;28;1133;-59
2022/04/26 05:47:15;;;;;;;;;;;;;;;18.24;nan;94928.31;2057862;28;777;-58
2022/04/26 05:48:16;;;;;;;;;;;;;;;18.27;nan;94930.63;2057863;28;1109;-60
2022/04/26 05:49:18;;;;;;;;;;;;;;;18.29;nan;94928.56;2057993;28;979;-58
2022/04/26 05:50:20;;;;;;;;;;;;;;;18.32;nan;94936.97;2057422;28;721;-61
2022/04/26 05:51:22;;;;;;;;;;;;;;;18.33;nan;94927.16;2054441;28;1172;-58
2022/04/26 05:52:24;;;;;;;;;;;;;;;18.33;nan;94935.13;2058003;28;1276;-59
2022/04/26 05:53:26;;;;;;;;;;;;;;;18.32;nan;94931.66;2057899;28;1029;-60
2022/04/26 05:54:27;;;;;;;;;;;;;;;18.35;nan;94929.59;2057469;28;1023;-60
2022/04/26 05:55:29;;;;;;;;;;;;;;;18.40;nan;94932.47;2050261;28;1322;-60
2022/04/26 05:56:30;;;;;;;;;;;;;;;18.43;nan;94932.09;2056952;28;1059;-60
2022/04/26 05:57:35;;;;;;;;;;;;;;;18.44;nan;94929.25;2057707;28;1109;-59
2022/04/26 05:58:37;;;;;;;;;;;;;;;18.50;nan;94930.28;2072747;28;1045;-59
2022/04/26 05:59:38;;;;;;;;;;;;;;;18.57;nan;94932.94;2072929;28;1974;-59
2022/04/26 06:00:40;;;;;;;;;;;;;;;18.55;nan;94930.47;2056032;28;1492;-64
2022/04/26 06:01:42;;;;;;;;;;;;;;;18.63;nan;94932.13;2046869;28;1162;-60
2022/04/26 06:02:43;;;;;;;;;;;;;;;18.75;nan;94920.75;2049661;28;1121;-60
2022/04/26 06:03:50;;;;;;;;;;;;;;;18.90;nan;94927.72;2049667;28;1067;-60
2022/04/26 06:04:51;;;;;;;;;;;;;;;19.04;nan;94929.38;2051425;28;1017;-64
2022/04/26 06:05:55;;;;;;;;;;;;;;;19.09;nan;94920.75;2064875;28;978;-60
2022/04/26 06:06:57;;;;;;;;;;;;;;;19.03;nan;94926.91;2055526;28;1188;-61
2022/04/26 06:07:59;;;;;;;;;;;;;;;18.98;nan;94923.03;2057503;28;1098;-61
2022/04/26 06:09:00;;;;;;;;;;;;;;;18.97;nan;94923.22;2057996;28;1292;-60
2022/04/26 06:10:03;;;;;;;;;;;;;;;18.98;nan;94916.88;2057175;28;1250;-61
2022/04/26 06:11:04;;;;;;;;;;;;;;;18.99;nan;94924.66;2054659;28;1136;-60
2022/04/26 06:12:06;;;;;;;;;;;;;;;18.99;nan;94923.84;2057686;28;1068;-59
2022/04/26 06:13:11;;;;;;;;;;;;;;;19.02;nan;94920.75;2072980;28;1009;-60
2022/04/26 06:14:12;;;;;;;;;;;;;;;19.05;nan;94924.88;2071832;28;1251;-59
2022/04/26 06:15:16;;;;;;;;;;;;;;;19.08;nan;94924.47;2057347;28;1144;-60
2022/04/26 06:16:18;;;;;;;;;;;;;;;19.10;nan;94920.56;2057756;28;1014;-59
2022/04/26 06:17:20;;;;;;;;;;;;;;;19.15;nan;94912.78;2057359;28;1041;-59
2022/04/26 06:18:21;;;;;;;;;;;;;;;19.17;nan;94923.22;2048757;28;1193;-61
2022/04/26 06:19:23;;;;;;;;;;;;;;;19.22;nan;94915.44;2057389;28;1215;-60
2022/04/26 06:20:25;;;;;;;;;;;;;;;19.24;nan;94913.41;2056964;28;1902;-61
2022/04/26 06:21:27;;;;;;;;;;;;;;;19.33;nan;94912.16;2052627;28;1243;-59
2022/04/26 06:22:29;;;;;;;;;;;;;;;19.38;nan;94915.03;2056809;28;1114;-60
2022/04/26 06:23:30;;;;;;;;;;;;;;;19.41;nan;94913.81;2049557;29;1098;-60
2022/04/26 06:24:32;;;;;;;;;;;;;;;19.52;nan;94910.50;2049267;28;1027;-59
2022/04/26 06:25:36;;;;;;;;;;;;;;;19.66;nan;94911.31;2056148;28;1177;-60
2022/04/26 06:26:38;;;;;;;;;;;;;;;19.66;nan;94909.50;2057743;28;1070;-59
2022/04/26 06:27:39;;;;;;;;;;;;;;;19.64;nan;94910.72;2057237;28;1003;-59
2022/04/26 06:28:41;;;;;;;;;;;;;;;19.68;nan;94914.59;2057698;28;983;-63
2022/04/26 06:29:45;;;;;;;;;;;;;;;19.78;nan;94909.66;2048283;28;1022;-58
2022/04/26 06:30:47;;;;;;;;;;;;;;;19.90;nan;94909.84;2055414;28;1121;-60
2022/04/26 06:31:49;;;;;;;;;;;;;;;20.03;nan;94911.63;2055569;28;1257;-60
2022/04/26 06:32:50;;;;;;;;;;;;;;;20.13;nan;94906.69;2057510;28;982;-61
2022/04/26 06:33:52;;;;;;;;;;;;;;;20.20;nan;94907.44;2057434;28;931;-58
2022/04/26 06:34:53;;;;;;;;;;;;;;;20.23;nan;94907.06;2056724;28;1157;-59
2022/04/26 06:35:55;;;;;;;;;;;;;;;20.28;nan;94912.56;2057423;28;1055;-59
2022/04/26 06:36:57;;;;;;;;;;;;;;;20.25;nan;94910.31;2057775;28;983;-59
2022/04/26 06:37:58;;;;;;;;;;;;;;;20.26;nan;94911.97;2057375;28;1108;-58
2022/04/26 06:39:00;;;;;;;;;;;;;;;20.34;nan;94906.38;2056339;28;1093;-62
2022/04/26 06:40:03;;;;;;;;;;;;;;;20.43;nan;94914.16;2056787;28;1903;-61
2022/04/26 06:41:05;;;;;;;;;;;;;;;20.48;nan;94909.00;2044898;28;1212;-58
2022/04/26 06:42:07;;;;;;;;;;;;;;;20.55;nan;94909.81;2057097;28;1564;-62
2022/04/26 06:43:11;;;;;;;;;;;;;;;20.60;nan;94907.31;2057571;28;997;-60
2022/04/26 06:44:12;;;;;;;;;;;;;;;20.66;nan;94910.94;2056693;28;996;-62
2022/04/26 06:45:14;;;;;;;;;;;;;;;20.63;nan;94906.03;2056488;28;1049;-60
2022/04/26 06:46:16;;;;;;;;;;;;;;;20.54;nan;94905.47;2057065;28;1088;-61
2022/04/26 06:47:17;;;;;;;;;;;;;;;20.52;nan;94904.91;2057884;28;1009;-61
2022/04/26 06:48:19;;;;;;;;;;;;;;;20.49;nan;94906.13;2057423;28;998;-60
2022/04/26 06:49:21;;;;;;;;;;;;;;;20.49;nan;94906.13;2057650;28;1021;-61
2022/04/26 06:50:22;;;;;;;;;;;;;;;20.50;nan;94896.28;2057462;28;813;-60
2022/04/26 06:51:24;;;;;;;;;;;;;;;20.58;nan;94896.03;2054014;28;1155;-58
2022/04/26 06:52:28;;;;;;;;;;;;;;;20.62;nan;94902.56;2048447;28;1247;-61
2022/04/26 06:53:30;;;;;;;;;;;;;;;20.69;nan;94895.34;2057365;28;1070;-63
2022/04/26 06:54:33;;;;;;;;;;;;;;;20.65;nan;94899.47;2057142;28;1049;-62
2022/04/26 06:55:35;;;;;;;;;;;;;;;20.62;nan;94899.06;2057186;28;1101;-60
2022/04/26 06:56:36;;;;;;;;;;;;;;;20.62;nan;94905.22;2057363;28;1062;-60
2022/04/26 06:57:38;;;;;;;;;;;;;;;20.65;nan;94894.13;2056295;28;1180;-61
2022/04/26 06:58:40;;;;;;;;;;;;;;;20.67;nan;94893.91;2057014;28;888;-60
2022/04/26 06:59:41;;;;;;;;;;;;;;;20.70;nan;94891.63;2057277;28;1106;-59
2022/04/26 07:00:43;;;;;;;;;;;;;;;20.78;nan;94893.22;2055260;28;1910;-62
2022/04/26 07:01:45;;;;;;;;;;;;;;;20.84;nan;94896.91;2053204;28;1099;-59
2022/04/26 07:02:47;;;;;;;;;;;;;;;20.85;nan;94888.66;2049628;28;1015;-61
2022/04/26 07:03:52;;;;;;;;;;;;;;;20.89;nan;94884.53;2057167;28;1332;-61
2022/04/26 07:04:56;;;;;;;;;;;;;;;20.94;nan;94890.03;2063000;28;1102;-60
2022/04/26 07:05:57;;;;;;;;;;;;;;;20.99;nan;94898.19;2057291;28;1066;-60
2022/04/26 07:06:59;;;;;;;;;;;;;;;21.05;nan;94893.03;2057412;28;974;-60
2022/04/26 07:08:01;;;;;;;;;;;;;;;21.08;nan;94887.25;2057351;28;1017;-59
2022/04/26 07:09:03;;;;;;;;;;;;;;;21.10;nan;94890.53;2057004;28;1006;-58
2022/04/26 07:10:05;;;;;;;;;;;;;;;21.11;nan;94892.97;2057531;28;1309;-59
2022/04/26 07:11:07;;;;;;;;;;;;;;;21.15;nan;94888.03;2052213;28;1203;-59
2022/04/26 07:12:08;;;;;;;;;;;;;;;21.17;nan;94886.81;2056745;28;1011;-60
2022/04/26 07:13:10;;;;;;;;;;;;;;;21.20;nan;94890.91;2057704;28;1092;-64
2022/04/26 07:14:13;;;;;;;;;;;;;;;21.21;nan;94888.00;2056352;28;1312;-62
2022/04/26 07:15:17;;;;;;;;;;;;;;;21.26;nan;94890.03;2050450;28;1282;-60
2022/04/26 07:16:19;;;;;;;;;;;;;;;21.23;nan;94885.13;2056683;28;1086;-60
2022/04/26 07:17:21;;;;;;;;;;;;;;;21.26;nan;94890.03;2057252;28;1021;-61
2022/04/26 07:18:22;;;;;;;;;;;;;;;21.25;nan;94892.91;2057307;28;1034;-60
2022/04/26 07:19:25;;;;;;;;;;;;;;;21.25;nan;94888.38;2056678;28;1308;-59
2022/04/26 07:20:29;;;;;;;;;;;;;;;21.27;nan;94886.31;2057406;28;1927;-59
2022/04/26 07:21:31;;;;;;;;;;;;;;;21.28;nan;94887.13;2052165;28;1077;-60
2022/04/26 07:22:53;;;;;;;;;;;;;;;21.30;nan;94887.72;2057570;28;1574;-60
2022/04/26 07:23:54;;;;;;;;;;;;;;;21.31;nan;94886.69;2056919;28;1017;-60
2022/04/26 07:24:56;;;;;;;;;;;;;;;21.33;nan;94880.06;2057037;28;1032;-64
2022/04/26 07:25:59;;;;;;;;;;;;;;;21.35;nan;94887.88;2044162;28;1099;-59
2022/04/26 07:27:03;;;;;;;;;;;;;;;21.33;nan;94884.63;2036106;29;1203;-61
2022/04/26 07:28:04;;;;;;;;;;;;;;;21.30;nan;94890.41;2048744;29;1021;-60
2022/04/26 07:29:08;;;;;;;;;;;;;;;21.28;nan;94887.94;2049466;28;1007;-61
2022/04/26 07:30:10;;;;;;;;;;;;;;;21.21;nan;94882.66;2049191;28;1117;-65
2022/04/26 07:31:12;;;;;;;;;;;;;;;21.23;nan;94891.28;2048941;28;1050;-60
2022/04/26 07:32:13;;;;;;;;;;;;;;;21.22;nan;94892.28;2057073;28;1103;-60
2022/04/26 07:34:36;;;;;;;;;;;;;;;21.18;nan;94883.09;2056578;28;1133;-61
2022/04/26 07:35:37;;;;;;;;;;;;;;;21.21;nan;94892.53;2056854;28;1117;-61
2022/04/26 07:36:39;;;;;;;;;;;;;;;21.26;nan;94890.03;2056747;28;818;-60
2022/04/26 07:37:41;;;;;;;;;;;;;;;21.29;nan;94886.91;2049045;28;1093;-61
2022/04/26 07:38:42;;;;;;;;;;;;;;;21.32;nan;94894.50;2055834;28;1095;-60
2022/04/26 07:39:44;;;;;;;;;;;;;;;21.37;nan;94891.13;2057067;28;1088;-64
2022/04/26 07:40:46;;;;;;;;;;;;;;;21.40;nan;94888.06;2055568;28;1899;-63
2022/04/26 07:41:48;;;;;;;;;;;;;;;21.44;nan;94890.06;2061020;28;1336;-60
2022/04/26 07:42:49;;;;;;;;;;;;;;;21.47;nan;94888.78;2072347;28;1231;-60
2022/04/26 07:43:52;;;;;;;;;;;;;;;21.47;nan;94891.47;2072560;28;1086;-61
2022/04/26 07:44:54;;;;;;;;;;;;;;;21.50;nan;94896.38;2056876;28;1063;-59
2022/04/26 07:45:55;;;;;;;;;;;;;;;21.48;nan;94881.59;2056430;28;1069;-60
2022/04/26 07:46:57;;;;;;;;;;;;;;;21.50;nan;94885.69;2057459;28;937;-60
2022/04/26 07:47:59;;;;;;;;;;;;;;;21.50;nan;94893.69;2057177;28;1006;-59
2022/04/26 07:49:00;;;;;;;;;;;;;;;21.52;nan;94888.97;2050345;28;1174;-63
2022/04/26 07:50:03;;;;;;;;;;;;;;;21.47;nan;94878.09;2054646;28;1041;-61
2022/04/26 07:51:04;;;;;;;;;;;;;;;21.53;nan;94890.59;2052368;28;1188;-61
2022/04/26 07:52:06;;;;;;;;;;;;;;;21.55;nan;94888.50;2049126;29;1037;-60
2022/04/26 07:53:08;;;;;;;;;;;;;;;21.56;nan;94892.81;2048840;28;1168;-60
2022/04/26 07:54:10;;;;;;;;;;;;;;;21.59;nan;94883.53;2049217;28;1019;-59
2022/04/26 07:55:11;;;;;;;;;;;;;;;21.60;nan;94888.69;2049291;28;1008;-60
2022/04/26 07:56:13;;;;;;;;;;;;;;;21.60;nan;94885.19;2055998;28;1301;-60
2022/04/26 07:57:18;;;;;;;;;;;;;;;21.62;nan;94891.94;2057389;28;1029;-61
2022/04/26 07:58:20;;;;;;;;;;;;;;;21.62;nan;94894.59;2057091;28;1101;-59
2022/04/26 07:59:22;;;;;;;;;;;;;;;21.63;nan;94896.25;2057279;28;1096;-59
2022/04/26 08:00:23;;;;;;;;;;;;;;;21.64;nan;94892.53;2049037;28;1298;-63
2022/04/26 08:01:25;;;;;;;;;;;;;;;21.65;nan;94899.53;2050064;28;1914;-59
2022/04/26 08:02:27;;;;;;;;;;;;;;;21.64;nan;94891.72;2057033;28;1078;-58
2022/04/26 08:03:32;;;;;;;;;;;;;;;21.63;nan;94890.91;2056828;28;1058;-60
2022/04/26 08:04:33;;;;;;;;;;;;;;;21.65;nan;94888.84;2057149;28;1094;-59
2022/04/26 08:05:35;;;;;;;;;;;;;;;21.64;nan;94884.50;2056796;28;1118;-59
2022/04/26 08:06:37;;;;;;;;;;;;;;;21.65;nan;94888.00;2057118;28;1125;-60
2022/04/26 08:07:39;;;;;;;;;;;;;;;21.67;nan;94881.38;2056982;28;914;-61
2022/04/26 08:08:41;;;;;;;;;;;;;;;21.70;nan;94882.00;2057158;28;1023;-58
2022/04/26 08:09:43;;;;;;;;;;;;;;;21.72;nan;94890.63;2056288;28;1259;-58
2022/04/26 08:10:45;;;;;;;;;;;;;;;21.72;nan;94879.94;2054808;28;1576;-63
2022/04/26 08:11:47;;;;;;;;;;;;;;;21.71;nan;94886.28;2043962;28;1341;-60
2022/04/26 08:12:48;;;;;;;;;;;;;;;21.73;nan;94886.91;2055768;28;1135;-59
2022/04/26 08:13:50;;;;;;;;;;;;;;;21.74;nan;94885.84;2048900;29;994;-61
2022/04/26 08:14:52;;;;;;;;;;;;;;;21.73;nan;94885.03;2049264;28;1439;-59
2022/04/26 08:15:53;;;;;;;;;;;;;;;21.73;nan;94885.03;2054207;28;1060;-58
2022/04/26 08:16:55;;;;;;;;;;;;;;;21.75;nan;94885.63;2057114;28;1006;-60
2022/04/26 08:17:57;;;;;;;;;;;;;;;21.75;nan;94884.84;2057261;28;1103;-60
2022/04/26 08:18:59;;;;;;;;;;;;;;;21.77;nan;94877.38;2056723;28;1037;-60
2022/04/26 08:20:01;;;;;;;;;;;;;;;21.78;nan;94885.19;2057002;28;1181;-61
2022/04/26 08:21:06;;;;;;;;;;;;;;;21.79;nan;94883.34;2052059;28;1962;-65
2022/04/26 08:22:07;;;;;;;;;;;;;;;21.81;nan;94876.72;2056328;28;1090;-60
2022/04/26 08:23:10;;;;;;;;;;;;;;;21.81;nan;94881.25;2048118;28;1402;-59
2022/04/26 08:28:15;;;;;;;;;;;;;;;21.84;nan;94878.13;2057144;28;812;-61
2022/04/26 08:29:17;;;;;;;;;;;;;;;21.84;nan;94878.94;2056055;28;917;-60
2022/04/26 08:30:19;;;;;;;;;;;;;;;21.85;nan;94880.59;2056863;28;986;-59
2022/04/26 08:31:21;;;;;;;;;;;;;;;21.83;nan;94877.31;2053249;28;1217;-61
2022/04/26 08:32:24;;;;;;;;;;;;;;;21.84;nan;94873.59;2058321;28;1013;-59
2022/04/26 08:33:26;;;;;;;;;;;;;;;21.84;nan;94881.63;2058452;28;1025;-58
2022/04/26 08:34:28;;;;;;;;;;;;;;;21.86;nan;94881.41;2051039;28;1146;-61
2022/04/26 08:35:30;;;;;;;;;;;;;;;21.84;nan;94886.97;2056897;28;1169;-60
2022/04/26 08:36:51;;;;;;;;;;;;;;;21.86;nan;94881.41;2058683;28;1392;-60
2022/04/26 08:37:53;;;;;;;;;;;;;;;21.85;nan;94879.75;2057982;28;1286;-59
2022/04/26 08:38:55;;;;;;;;;;;;;;;21.87;nan;94883.03;2058650;28;986;-58
2022/04/26 08:39:57;;;;;;;;;;;;;;;21.88;nan;94882.84;2065810;28;1100;-61
2022/04/26 08:40:59;;;;;;;;;;;;;;;21.92;nan;94883.19;2061708;28;1072;-64
2022/04/26 08:42:01;;;;;;;;;;;;;;;21.89;nan;94878.28;2056932;28;1970;-59
2022/04/26 08:43:03;;;;;;;;;;;;;;;21.90;nan;94883.41;2058537;28;1025;-59
2022/04/26 08:44:08;;;;;;;;;;;;;;;21.89;nan;94883.66;2058215;28;1116;-60
2022/04/26 08:45:11;;;;;;;;;;;;;;;21.89;nan;94879.09;2070082;28;1109;-61
2022/04/26 08:46:13;;;;;;;;;;;;;;;21.88;nan;94882.84;2067775;28;1184;-64
2022/04/26 08:51:15;;;;;;;;;;;;;;;21.89;nan;94872.94;2053090;28;1111;-60
2022/04/26 08:52:17;;;;;;;;;;;;;;;21.89;nan;94879.09;2057915;28;1014;-58
2022/04/26 08:53:21;;;;;;;;;;;;;;;21.89;nan;94875.63;2058205;28;758;-59
2022/04/26 08:54:22;;;;;;;;;;;;;;;21.91;nan;94881.56;2058243;28;1097;-59
2022/04/26 08:55:24;;;;;;;;;;;;;;;21.93;nan;94879.47;2057537;28;1104;-59
2022/04/26 08:56:26;;;;;;;;;;;;;;;21.93;nan;94879.47;2056848;28;1002;-59
2022/04/26 08:57:28;;;;;;;;;;;;;;;21.93;nan;94879.47;2050166;28;1344;-59
2022/04/26 08:58:33;;;;;;;;;;;;;;;21.94;nan;94875.78;2057885;28;1119;-60
2022/04/26 08:59:38;;;;;;;;;;;;;;;21.93;nan;94874.13;2057990;28;1184;-60
2022/04/26 09:00:40;;;;;;;;;;;;;;;21.94;nan;94877.59;2057515;28;1065;-63
2022/04/26 09:01:42;;;;;;;;;;;;;;;21.95;nan;94877.44;2054012;28;2287;-59
2022/04/26 09:02:58;;;;;;;;;;;;;;;21.97;nan;94867.31;2065033;28;1039;-60
2022/04/26 09:04:01;;;;;;;;;;;;;;;21.98;nan;94868.94;2063838;28;967;-59
2022/04/26 09:05:08;;;;;;;;;;;;;;;21.99;nan;94867.09;2058367;28;1018;-60
2022/04/26 09:06:12;;;;;;;;;;;;;;;22.00;nan;94871.41;2057753;28;1032;-64
2022/04/26 09:07:29;;;;;;;;;;;;;;;22.00;nan;94869.56;2057846;28;1006;-61
2022/04/26 09:08:30;;;;;;;;;;;;;;;22.03;nan;94869.09;2051459;28;1177;-62
2022/04/26 09:09:33;;;;;;;;;;;;;;;22.03;nan;94873.66;2056563;28;1289;-58
2022/04/26 09:10:35;;;;;;;;;;;;;;;22.03;nan;94879.81;2057638;28;1193;-59
2022/04/26 09:11:37;;;;;;;;;;;;;;;22.03;nan;94873.66;2053097;28;1157;-59
2022/04/26 09:12:57;;;;;;;;;;;;;;;22.02;nan;94875.47;2064975;28;1003;-59
2022/04/26 09:13:59;;;;;;;;;;;;;;;22.01;nan;94871.19;2062927;28;1316;-58
2022/04/26 09:15:16;;;;;;;;;;;;;;;22.02;nan;94866.63;2064539;28;1100;-58
2022/04/26 09:16:19;;;;;;;;;;;;;;;22.02;nan;94863.97;2049190;28;1145;-61
2022/04/26 09:17:21;;;;;;;;;;;;;;;22.01;nan;94860.47;2049768;28;1053;-63
2022/04/26 09:18:27;;;;;;;;;;;;;;;22.03;nan;94862.94;2057239;28;1067;-60
2022/04/26 09:19:42;;;;;;;;;;;;;;;22.03;nan;94855.72;2045635;28;1197;-60
2022/04/26 09:20:44;;;;;;;;;;;;;;;22.03;nan;94855.72;2045218;28;1312;-63
2022/04/26 09:21:53;;;;;;;;;;;;;;;22.03;nan;94858.41;2068733;28;2028;-60
2022/04/26 09:22:57;;;;;;;;;;;;;;;22.03;nan;94852.25;2071498;28;1086;-61
2022/04/26 09:24:00;;;;;;;;;;;;;;;22.04;nan;94853.88;2073143;28;1014;-59
2022/04/26 09:25:06;;;;;;;;;;;;;;;22.03;nan;94855.72;2072903;28;1065;-60
2022/04/26 09:26:12;;;;;;;;;;;;;;;22.04;nan;94864.56;2057835;28;1046;-60
2022/04/26 09:27:16;;;;;;;;;;;;;;;22.04;nan;94854.69;2058042;28;1117;-59
2022/04/26 09:28:20;;;;;;;;;;;;;;;22.07;nan;94858.75;2057796;28;1022;-60